Time;durP1;ratioP1;P1;durP2;ratioP2;P2;SDS_P1;SDS_P2;PMS_P1;PMS_P2;Temp;Humidity;BMP_temperature;BMP_pressure;BME280_temperature;BME280_humidity;BME280_pressure;Samples;Min_cycle;Max_cycle;Signal;HPM_P1;HPM_P2
2021/12/20 00:01:46;;;;;;;50.40;19.83;;;;;;;0.25;100.00;96919.63;5016419;28;20598;-76
2021/12/20 00:04:12;;;;;;;52.63;19.90;;;;;;;0.24;100.00;96916.22;4996560;28;20464;-75
2021/12/20 00:06:38;;;;;;;58.93;20.23;;;;;;;0.26;100.00;96913.53;4989163;28;20476;-76
2021/12/20 00:09:04;;;;;;;59.10;20.27;;;;;;;0.26;100.00;96903.19;5018821;28;21039;-75
2021/12/20 00:11:30;;;;;;;56.00;21.03;;;;;;;0.20;100.00;96907.78;5017491;28;20033;-76
2021/12/20 00:13:56;;;;;;;52.53;24.07;;;;;;;0.23;100.00;96899.00;5015528;28;20475;-76
2021/12/20 00:16:22;;;;;;;55.73;19.77;;;;;;;0.21;100.00;96908.63;5008689;28;20021;-76
2021/12/20 00:18:47;;;;;;;51.77;18.73;;;;;;;0.25;100.00;96904.13;5003357;28;20036;-76
2021/12/20 00:21:13;;;;;;;51.20;19.30;;;;;;;0.21;100.00;96906.03;5008910;28;20030;-75
2021/12/20 00:23:39;;;;;;;50.37;20.00;;;;;;;0.22;100.00;96893.00;5013212;28;20709;-76
2021/12/20 00:26:05;;;;;;;51.77;18.20;;;;;;;0.20;100.00;96894.84;5009132;28;20030;-76
2021/12/20 00:28:31;;;;;;;44.43;19.23;;;;;;;0.23;100.00;96889.53;5021225;28;20034;-76
2021/12/20 00:30:56;;;;;;;43.63;18.13;;;;;;;0.22;100.00;96893.00;4992813;28;20309;-77
2021/12/20 00:33:22;;;;;;;47.57;18.93;;;;;;;0.19;100.00;96893.16;5026534;28;20036;-77
2021/12/20 00:35:49;;;;;;;45.60;17.47;;;;;;;0.21;100.00;96890.50;4993883;28;20506;-76
2021/12/20 00:40:59;;;;;;;51.47;18.80;;;;;;;0.20;100.00;96892.25;5020360;28;20425;-76
2021/12/20 00:43:25;;;;;;;50.40;17.33;;;;;;;0.18;100.00;96886.31;5007507;28;20025;-77
2021/12/20 00:45:51;;;;;;;50.37;17.57;;;;;;;0.18;100.00;96886.31;5008548;28;20120;-76
2021/12/20 00:48:19;;;;;;;51.63;18.83;;;;;;;0.19;100.00;96877.63;5037935;28;20471;-76
2021/12/20 00:50:45;;;;;;;56.17;19.07;;;;;;;0.18;100.00;96886.31;5034891;28;20448;-76
2021/12/20 00:53:12;;;;;;;49.57;19.33;;;;;;;0.19;100.00;96887.97;5009731;28;21001;-74
2021/12/20 00:55:39;;;;;;;52.23;18.87;;;;;;;0.20;100.00;96887.09;5023076;28;20533;-77
2021/12/20 00:58:05;;;;;;;58.83;20.03;;;;;;;0.19;100.00;96895.75;5004452;28;20099;-76
2021/12/20 01:00:46;;;;;;;86.83;20.97;;;;;;;0.21;100.00;96901.69;5030198;28;20460;-76
2021/12/20 01:03:14;;;;;;;70.93;20.57;;;;;;;0.18;100.00;96896.66;5013930;28;20514;-77
2021/12/20 01:05:41;;;;;;;56.20;18.50;;;;;;;0.18;100.00;96899.25;5003220;28;20491;-77
2021/12/20 01:08:08;;;;;;;70.07;18.40;;;;;;;0.24;100.00;96890.34;5006605;28;20483;-76
2021/12/20 01:10:37;;;;;;;58.77;19.97;;;;;;;0.25;100.00;96897.19;5027111;28;20444;-76
2021/12/20 01:13:04;;;;;;;55.57;18.93;;;;;;;0.23;100.00;96899.00;5026938;28;20468;-75
2021/12/20 01:15:47;;;;;;;62.80;20.13;;;;;;;0.26;100.00;96895.44;5011402;28;20084;-76
2021/12/20 01:18:14;;;;;;;56.87;19.43;;;;;;;0.27;100.00;96897.09;5023553;28;20029;-76
2021/12/20 01:20:41;;;;;;;58.23;20.80;;;;;;;0.31;100.00;96890.88;4995094;28;20450;-76
2021/12/20 01:23:08;;;;;;;54.50;22.43;;;;;;;0.26;100.00;96898.84;5026739;28;20871;-76
2021/12/20 01:25:35;;;;;;;54.23;18.50;;;;;;;0.29;100.00;96896.09;5016509;28;20097;-76
2021/12/20 01:28:01;;;;;;;55.30;18.50;;;;;;;0.28;100.00;96899.63;4978179;28;20495;-76
2021/12/20 01:30:28;;;;;;;58.77;20.27;;;;;;;0.29;100.00;96903.88;5016139;28;20467;-76
2021/12/20 01:32:54;;;;;;;54.33;19.07;;;;;;;0.31;100.00;96901.22;5005870;28;20436;-76
2021/12/20 01:35:23;;;;;;;44.97;18.23;;;;;;;0.30;100.00;96890.00;5030882;28;20463;-76
2021/12/20 01:37:50;;;;;;;56.30;19.67;;;;;;;0.28;100.00;96896.19;4991124;28;20547;-76
2021/12/20 01:40:17;;;;;;;55.70;19.83;;;;;;;0.29;100.00;96897.84;5011202;28;20479;-76
2021/12/20 01:42:44;;;;;;;53.50;19.13;;;;;;;0.30;100.00;96899.53;5011505;28;20091;-76
2021/12/20 01:45:19;;;;;;;57.17;19.53;;;;;;;0.35;100.00;96889.78;5013387;28;20510;-76
2021/12/20 01:47:49;;;;;;;58.23;19.47;;;;;;;0.33;100.00;96899.38;5014468;28;20041;-76
2021/12/20 01:50:40;;;;;;;53.27;17.83;;;;;;;0.30;100.00;96890.00;5032427;28;20029;-76
2021/12/20 01:53:20;;;;;;;66.67;19.50;;;;;;;0.33;100.00;96892.44;5010869;28;20041;-76
2021/12/20 01:55:46;;;;;;;63.60;22.00;;;;;;;0.29;100.00;96892.69;5028695;28;20033;-77
2021/12/20 01:58:12;;;;;;;71.40;19.70;;;;;;;0.30;100.00;96891.75;5021749;28;20472;-76
2021/12/20 02:01:01;;;;;;;54.97;19.23;;;;;;;0.31;100.00;96881.34;5010991;28;20564;-76
2021/12/20 02:03:24;;;;;;;63.17;19.47;;;;;;;0.31;100.00;96891.69;5027898;28;20033;-76
2021/12/20 02:05:55;;;;;;;89.30;20.27;;;;;;;0.31;100.00;96883.94;5010197;28;20042;-76
2021/12/20 02:08:24;;;;;;;110.57;21.87;;;;;;;0.28;100.00;96885.84;5008797;28;20037;-76
2021/12/20 02:10:55;;;;;;;124.47;21.53;;;;;;;0.29;100.00;96872.00;5025618;28;20043;-75
2021/12/20 02:13:24;;;;;;;114.87;23.57;;;;;;;0.34;100.00;96867.44;5022567;28;20482;-76
2021/12/20 02:15:50;;;;;;;120.97;22.37;;;;;;;0.34;100.00;96870.84;5015871;28;20036;-78
2021/12/20 02:18:16;;;;;;;135.20;23.53;;;;;;;0.28;100.00;96863.41;5003125;28;20034;-76
2021/12/20 02:20:42;;;;;;;167.27;24.40;;;;;;;0.23;100.00;96874.00;5016041;28;20587;-76
2021/12/20 02:23:08;;;;;;;130.90;22.43;;;;;;;0.26;100.00;96864.38;4996115;28;20514;-76
2021/12/20 02:25:35;;;;;;;135.20;23.70;;;;;;;0.27;100.00;96863.47;5010379;28;20029;-76
2021/12/20 02:28:10;;;;;;;254.07;27.70;;;;;;;0.26;100.00;96862.63;5007920;28;20459;-76
2021/12/20 02:38:37;;;;;;;120.10;24.07;;;;;;;0.30;100.00;96874.47;5008919;28;20562;-76
2021/12/20 02:41:09;;;;;;;146.23;23.27;;;;;;;0.28;100.00;96878.09;5015823;28;20645;-76
2021/12/20 02:43:41;;;;;;;212.60;27.80;;;;;;;0.31;100.00;96859.81;5010139;28;20176;-76
2021/12/20 02:46:26;;;;;;;164.83;22.90;;;;;;;0.31;100.00;96863.25;5015112;28;20471;-75
2021/12/20 02:48:52;;;;;;;110.30;21.17;;;;;;;0.31;100.00;96865.81;4996049;28;20041;-76
2021/12/20 02:51:18;;;;;;;168.83;24.37;;;;;;;0.35;100.00;96856.16;5008032;28;20033;-76
2021/12/20 02:53:43;;;;;;;141.77;23.33;;;;;;;0.32;100.00;96864.06;4987507;28;20045;-75
2021/12/20 02:56:09;;;;;;;128.83;23.40;;;;;;;0.34;100.00;96859.66;5012774;28;20031;-76
2021/12/20 02:58:34;;;;;;;81.00;21.77;;;;;;;0.33;100.00;96853.63;5011007;28;20033;-76
2021/12/20 03:01:00;;;;;;;185.43;24.40;;;;;;;0.34;100.00;96863.09;5010030;28;20040;-75
2021/12/20 03:03:26;;;;;;;223.87;28.80;;;;;;;0.31;100.00;96865.00;5001326;28;20038;-76
2021/12/20 03:05:52;;;;;;;105.00;21.83;;;;;;;0.32;100.00;96869.25;4994085;28;20962;-76
2021/12/20 03:08:22;;;;;;;132.47;23.63;;;;;;;0.34;100.00;96865.66;5021425;28;20064;-76
2021/12/20 03:10:48;;;;;;;126.20;23.13;;;;;;;0.30;100.00;96864.13;5010628;28;20033;-76
2021/12/20 03:13:14;;;;;;;148.37;26.20;;;;;;;0.28;100.00;96872.91;5006681;28;20095;-75
2021/12/20 03:15:41;;;;;;;64.57;19.60;;;;;;;0.29;100.00;96867.66;5026756;28;20029;-76
2021/12/20 03:18:07;;;;;;;89.13;19.60;;;;;;;0.30;100.00;96871.06;5012321;28;20112;-76
2021/12/20 03:20:32;;;;;;;88.17;19.53;;;;;;;0.29;100.00;96872.00;4996964;28;20112;-76
2021/12/20 03:22:58;;;;;;;103.50;19.87;;;;;;;0.32;100.00;96874.41;5008735;28;20060;-75
2021/12/20 03:25:24;;;;;;;103.13;21.60;;;;;;;0.28;100.00;96865.16;5011711;28;20022;-76
2021/12/20 03:27:50;;;;;;;84.73;20.03;;;;;;;0.26;100.00;96857.47;5015277;28;20120;-76
2021/12/20 03:30:17;;;;;;;112.07;19.70;;;;;;;0.26;100.00;96861.81;4996079;28;20037;-76
2021/12/20 03:32:42;;;;;;;72.87;18.80;;;;;;;0.25;100.00;96860.13;5013108;28;20064;-76
2021/12/20 03:35:09;;;;;;;50.43;16.30;;;;;;;0.25;100.00;96854.97;5025127;28;20483;-76
2021/12/20 03:37:35;;;;;;;71.73;18.30;;;;;;;0.19;100.00;96856.94;5007308;28;20036;-76
2021/12/20 03:40:01;;;;;;;41.80;15.37;;;;;;;0.21;100.00;96860.31;5010273;28;20576;-76
2021/12/20 03:42:28;;;;;;;36.90;14.17;;;;;;;0.22;100.00;96861.13;5013554;28;20120;-75
2021/12/20 03:44:54;;;;;;;37.37;14.40;;;;;;;0.22;100.00;96853.38;5011883;28;20060;-76
2021/12/20 03:47:20;;;;;;;35.03;13.87;;;;;;;0.28;100.00;96867.75;4997380;28;20516;-76
2021/12/20 03:49:46;;;;;;;36.07;14.40;;;;;;;0.26;100.00;96864.38;5003853;28;20155;-76
2021/12/20 03:52:12;;;;;;;37.37;14.47;;;;;;;0.22;100.00;96854.19;5039979;28;20028;-77
2021/12/20 03:54:38;;;;;;;45.13;15.97;;;;;;;0.24;100.00;96856.72;5019352;28;20105;-76
2021/12/20 03:57:04;;;;;;;49.27;16.23;;;;;;;0.27;100.00;96859.16;5034909;28;20553;-76
2021/12/20 03:59:30;;;;;;;45.70;17.77;;;;;;;0.33;100.00;96863.16;5007868;28;20033;-76
2021/12/20 04:01:57;;;;;;;53.37;16.87;;;;;;;0.33;100.00;96853.63;5007242;28;20041;-75
2021/12/20 04:04:23;;;;;;;117.53;22.27;;;;;;;0.32;100.00;96857.13;4999256;28;20029;-77
2021/12/20 04:06:49;;;;;;;159.57;22.43;;;;;;;0.34;100.00;96855.31;5018940;28;20041;-76
2021/12/20 04:09:15;;;;;;;89.60;21.87;;;;;;;0.33;100.00;96858.81;4989086;28;20033;-75
2021/12/20 04:11:41;;;;;;;105.20;20.40;;;;;;;0.34;100.00;96865.66;5044461;28;20047;-77
2021/12/20 04:14:07;;;;;;;105.23;20.70;;;;;;;0.37;100.00;96864.66;5017720;28;20041;-75
2021/12/20 04:16:34;;;;;;;115.33;21.80;;;;;;;0.38;100.00;96861.16;5001527;28;21037;-76
2021/12/20 04:18:59;;;;;;;162.17;25.13;;;;;;;0.38;100.00;96859.41;5015545;28;20037;-76
2021/12/20 04:21:25;;;;;;;57.40;18.97;;;;;;;0.43;100.00;96862.56;5011303;28;20080;-75
2021/12/20 04:23:51;;;;;;;217.67;29.37;;;;;;;0.40;100.00;96862.75;5004225;28;20116;-77
2021/12/20 04:26:17;;;;;;;79.50;20.50;;;;;;;0.41;100.00;96867.00;5011868;28;20033;-76
2021/12/20 04:28:43;;;;;;;201.27;28.53;;;;;;;0.43;100.00;96864.31;4997055;28;20029;-76
2021/12/20 04:31:08;;;;;;;80.10;21.77;;;;;;;0.41;100.00;96868.78;4996605;28;20513;-75
2021/12/20 04:33:34;;;;;;;66.30;20.13;;;;;;;0.44;100.00;96872.03;5009678;28;20026;-77
2021/12/20 04:36:00;;;;;;;64.23;21.07;;;;;;;0.50;100.00;96870.84;4997147;28;20033;-76
2021/12/20 04:38:29;;;;;;;121.93;23.53;;;;;;;0.47;100.00;96873.63;5023028;28;20025;-76
2021/12/20 04:40:54;;;;;;;118.97;24.33;;;;;;;0.47;100.00;96871.03;5024802;28;20036;-77
2021/12/20 04:43:21;;;;;;;197.57;30.17;;;;;;;0.46;100.00;96877.09;5009876;28;20039;-77
2021/12/20 04:45:47;;;;;;;192.80;29.83;;;;;;;0.46;100.00;96879.69;5032846;28;20090;-76
2021/12/20 04:48:13;;;;;;;124.10;24.53;;;;;;;0.46;100.00;96872.75;5014908;28;20687;-76
2021/12/20 04:50:39;;;;;;;118.33;27.07;;;;;;;0.48;100.00;96877.88;5023447;28;20082;-76
2021/12/20 04:53:06;;;;;;;145.83;28.00;;;;;;;0.49;100.00;96879.53;4997954;28;20021;-76
2021/12/20 04:55:32;;;;;;;141.17;28.40;;;;;;;0.50;100.00;96880.38;5012851;28;20574;-76
2021/12/20 04:58:00;;;;;;;138.23;26.37;;;;;;;0.54;100.00;96881.88;5031112;28;20043;-76
2021/12/20 05:00:32;;;;;;;139.97;28.17;;;;;;;0.54;100.00;96887.03;4995507;28;20507;-76
2021/12/20 05:02:57;;;;;;;148.93;27.87;;;;;;;0.53;100.00;96883.63;5007341;28;20068;-76
2021/12/20 05:05:23;;;;;;;178.80;30.03;;;;;;;0.53;100.00;96891.38;5032045;28;20080;-76
2021/12/20 05:07:50;;;;;;;97.20;25.43;;;;;;;0.54;100.00;96885.31;5049405;28;20037;-76
2021/12/20 05:10:31;;;;;;;129.23;25.47;;;;;;;0.55;100.00;96883.56;4984479;28;20044;-77
2021/12/20 05:13:00;;;;;;;131.37;23.30;;;;;;;0.54;100.00;96893.06;5009581;28;20562;-77
2021/12/20 05:15:27;;;;;;;200.77;30.70;;;;;;;0.54;100.00;96887.03;5018522;28;20025;-76
2021/12/20 05:17:52;;;;;;;161.63;29.40;;;;;;;0.52;100.00;96886.31;5023046;28;20057;-76
2021/12/20 05:20:19;;;;;;;66.50;22.47;;;;;;;0.58;100.00;96892.00;4997000;28;20095;-76
2021/12/20 05:22:45;;;;;;;131.67;27.90;;;;;;;0.59;100.00;96895.41;5015897;28;20025;-77
2021/12/20 05:25:12;;;;;;;136.47;25.83;;;;;;;0.64;100.00;96891.66;5014267;28;20122;-77
2021/12/20 05:27:38;;;;;;;85.90;25.27;;;;;;;0.58;100.00;96894.59;5006563;28;20040;-76
2021/12/20 05:30:05;;;;;;;81.17;23.77;;;;;;;0.66;100.00;96897.59;5016326;28;20033;-77
2021/12/20 05:32:31;;;;;;;77.63;27.03;;;;;;;0.65;100.00;96890.75;5014236;28;20583;-76
2021/12/20 05:34:57;;;;;;;83.63;23.43;;;;;;;0.70;100.00;96899.13;5024936;28;20033;-76
2021/12/20 05:37:23;;;;;;;117.23;24.67;;;;;;;0.62;100.00;96885.72;5044468;28;20067;-77
2021/12/20 05:39:49;;;;;;;220.63;31.70;;;;;;;0.61;100.00;96888.41;5047334;28;20452;-76
2021/12/20 05:42:14;;;;;;;131.07;25.80;;;;;;;0.63;100.00;96894.31;5022100;28;20025;-77
2021/12/20 05:44:40;;;;;;;68.03;22.40;;;;;;;0.67;100.00;96894.09;5012676;28;20044;-77
2021/12/20 05:47:07;;;;;;;68.87;23.83;;;;;;;0.62;100.00;96896.09;5022650;28;20082;-76
2021/12/20 05:49:33;;;;;;;95.53;24.90;;;;;;;0.63;100.00;96892.56;5037618;28;20034;-77
2021/12/20 05:52:03;;;;;;;97.57;24.47;;;;;;;0.68;100.00;96898.34;5018268;28;20045;-77
2021/12/20 05:54:30;;;;;;;121.07;28.83;;;;;;;0.66;100.00;96907.09;5018699;28;20072;-77
2021/12/20 05:56:56;;;;;;;82.87;25.33;;;;;;;0.65;100.00;96906.28;5020523;28;20040;-76
2021/12/20 05:59:22;;;;;;;82.87;24.17;;;;;;;0.60;100.00;96903.06;5032462;28;20029;-77
2021/12/20 06:01:48;;;;;;;137.13;31.03;;;;;;;0.66;100.00;96899.34;5043426;28;20041;-77
2021/12/20 06:04:13;;;;;;;104.93;27.17;;;;;;;0.61;100.00;96902.19;5035113;28;20025;-76
2021/12/20 06:06:40;;;;;;;123.70;28.13;;;;;;;0.66;100.00;96907.09;5015445;28;20033;-77
2021/12/20 06:09:06;;;;;;;124.23;28.17;;;;;;;0.63;100.00;96902.91;4997409;28;20564;-76
2021/12/20 06:11:31;;;;;;;80.83;23.93;;;;;;;0.65;100.00;96916.63;5013684;28;20055;-75
2021/12/20 06:13:58;;;;;;;82.10;24.10;;;;;;;0.65;100.00;96916.63;5013942;28;20052;-77
2021/12/20 06:16:25;;;;;;;62.20;24.17;;;;;;;0.72;100.00;96913.72;5013966;28;20134;-77
2021/12/20 06:18:51;;;;;;;67.20;23.70;;;;;;;0.73;100.00;96911.03;5022406;28;20060;-77
2021/12/20 06:21:18;;;;;;;79.03;24.03;;;;;;;0.69;100.00;96910.34;5021190;28;20441;-77
2021/12/20 06:23:45;;;;;;;72.30;25.17;;;;;;;0.69;100.00;96910.34;5036195;28;20571;-77
2021/12/20 06:26:11;;;;;;;75.93;22.77;;;;;;;0.69;100.00;96919.88;5035537;28;20086;-77
2021/12/20 06:28:37;;;;;;;66.57;24.47;;;;;;;0.68;100.00;96919.06;5031604;28;20048;-76
2021/12/20 06:31:02;;;;;;;65.00;22.93;;;;;;;0.72;100.00;96911.97;5015559;28;20049;-76
2021/12/20 06:33:28;;;;;;;68.93;24.93;;;;;;;0.73;100.00;96917.97;4999686;28;20025;-77
2021/12/20 06:35:55;;;;;;;63.97;22.80;;;;;;;0.73;100.00;96928.31;5040092;28;20040;-77
2021/12/20 06:38:22;;;;;;;76.43;23.93;;;;;;;0.74;100.00;96927.41;5018136;28;20033;-76
2021/12/20 06:40:50;;;;;;;83.17;26.07;;;;;;;0.72;100.00;96924.06;5018012;28;20033;-77
2021/12/20 06:43:16;;;;;;;71.80;25.07;;;;;;;0.75;100.00;96929.91;5015944;28;20032;-77
2021/12/20 06:45:42;;;;;;;304.57;134.83;;;;;;;0.74;100.00;96940.34;5012626;28;20029;-77
2021/12/20 06:48:09;;;;;;;109.43;40.67;;;;;;;0.74;100.00;96927.41;5030352;28;20411;-77
2021/12/20 06:50:35;;;;;;;141.53;59.57;;;;;;;0.76;100.00;96930.75;5017530;28;20045;-77
2021/12/20 06:53:01;;;;;;;106.47;31.53;;;;;;;0.73;100.00;96929.16;5034730;28;20184;-77
2021/12/20 06:55:27;;;;;;;109.63;27.10;;;;;;;0.74;100.00;96929.97;5052516;28;20398;-77
2021/12/20 06:57:53;;;;;;;111.33;27.27;;;;;;;0.77;100.00;96937.59;5021448;28;20030;-76
2021/12/20 07:00:19;;;;;;;185.27;30.17;;;;;;;0.73;100.00;96936.09;4997053;28;20495;-77
2021/12/20 07:02:45;;;;;;;117.00;28.73;;;;;;;0.73;100.00;96939.50;4997068;28;20037;-77
2021/12/20 07:05:11;;;;;;;72.83;25.30;;;;;;;0.77;100.00;96937.59;4997119;28;20026;-77
2021/12/20 07:07:39;;;;;;;154.37;30.23;;;;;;;0.78;100.00;96934.09;5006902;28;20044;-76
2021/12/20 07:10:05;;;;;;;114.30;26.90;;;;;;;0.77;100.00;96935.00;5006761;28;20075;-76
2021/12/20 07:12:34;;;;;;;143.20;29.33;;;;;;;0.73;100.00;96951.63;5031619;28;20032;-77
2021/12/20 07:15:00;;;;;;;110.80;25.67;;;;;;;0.81;100.00;96958.06;5012326;28;20042;-77
2021/12/20 07:17:26;;;;;;;105.47;29.60;;;;;;;0.80;100.00;96952.97;5026301;28;20097;-76
2021/12/20 07:19:52;;;;;;;88.23;26.60;;;;;;;0.75;100.00;96948.03;5022325;28;20041;-77
2021/12/20 07:22:18;;;;;;;75.73;26.00;;;;;;;0.79;100.00;96953.88;5034298;28;20033;-77
2021/12/20 07:24:43;;;;;;;89.40;27.73;;;;;;;0.76;100.00;96951.47;5015900;28;20026;-77
2021/12/20 07:27:10;;;;;;;94.20;26.97;;;;;;;0.77;100.00;96951.41;4996967;28;20080;-77
2021/12/20 07:29:37;;;;;;;78.87;27.67;;;;;;;0.82;100.00;96964.09;4993781;28;20029;-77
2021/12/20 07:32:04;;;;;;;108.33;28.70;;;;;;;0.80;100.00;96955.56;5006903;28;20037;-76
2021/12/20 07:34:30;;;;;;;75.40;25.33;;;;;;;0.82;100.00;96956.31;5012081;28;20108;-76
2021/12/20 07:36:55;;;;;;;75.97;25.63;;;;;;;0.87;100.00;96956.91;5033770;28;20083;-77
2021/12/20 07:39:21;;;;;;;66.43;24.00;;;;;;;0.87;100.00;96957.75;4998936;28;20029;-76
2021/12/20 07:41:49;;;;;;;74.27;25.47;;;;;;;0.85;100.00;96958.75;5032242;28;20045;-78
2021/12/20 07:44:19;;;;;;;84.13;25.07;;;;;;;0.87;100.00;96964.66;5004177;28;20096;-77
2021/12/20 07:46:45;;;;;;;106.57;26.80;;;;;;;0.85;100.00;96953.56;4996892;28;20463;-77
2021/12/20 07:49:10;;;;;;;99.57;32.57;;;;;;;0.88;100.00;96956.00;4990335;28;20553;-77
2021/12/20 07:51:36;;;;;;;86.90;30.13;;;;;;;0.90;100.00;96957.56;5035579;28;20071;-77
2021/12/20 07:54:02;;;;;;;83.27;25.87;;;;;;;0.87;100.00;96951.72;5036465;28;20033;-77
2021/12/20 07:56:28;;;;;;;76.63;26.63;;;;;;;0.94;100.00;96961.69;5034901;28;20040;-77
2021/12/20 07:58:53;;;;;;;70.23;25.17;;;;;;;0.99;100.00;96960.59;5033153;28;20038;-77
2021/12/20 08:01:19;;;;;;;69.93;25.17;;;;;;;1.01;100.00;96954.41;5047795;28;20041;-77
2021/12/20 08:03:45;;;;;;;71.50;24.50;;;;;;;1.06;100.00;96962.75;5032117;28;20450;-77
2021/12/20 08:06:11;;;;;;;70.10;24.27;;;;;;;1.06;100.00;96965.34;5014487;28;20030;-78
2021/12/20 08:08:37;;;;;;;66.43;26.63;;;;;;;1.02;100.00;96963.84;5016113;28;20036;-77
2021/12/20 08:11:03;;;;;;;68.70;25.13;;;;;;;1.01;100.00;96959.59;5038147;28;20021;-77
2021/12/20 08:13:31;;;;;;;74.93;23.73;;;;;;;1.05;100.00;96963.69;5018592;28;20510;-76
2021/12/20 08:15:56;;;;;;;68.27;24.43;;;;;;;1.06;100.00;96965.34;5022002;28;20041;-77
2021/12/20 08:18:22;;;;;;;63.67;23.67;;;;;;;1.08;100.00;96966.13;5023170;28;20063;-77
2021/12/20 08:20:48;;;;;;;84.17;27.73;;;;;;;1.02;100.00;96966.44;5030958;28;20542;-78
2021/12/20 08:23:14;;;;;;;63.53;27.70;;;;;;;1.10;100.00;96974.63;5022455;28;20035;-77
2021/12/20 08:25:40;;;;;;;83.17;30.43;;;;;;;1.08;100.00;96971.31;5039362;28;20089;-76
2021/12/20 08:28:06;;;;;;;83.57;29.93;;;;;;;1.07;100.00;96969.59;5038174;28;20453;-76
2021/12/20 08:30:32;;;;;;;66.73;27.40;;;;;;;1.14;100.00;96970.97;5038847;28;20021;-77
2021/12/20 08:32:58;;;;;;;66.50;26.20;;;;;;;1.23;100.00;96984.34;5020650;28;20033;-77
2021/12/20 08:35:24;;;;;;;60.43;23.07;;;;;;;1.27;100.00;96983.25;5055531;28;20720;-80
2021/12/20 08:37:50;;;;;;;53.10;21.23;;;;;;;1.25;100.00;96982.50;5020474;28;20118;-79
2021/12/20 08:40:17;;;;;;;60.00;24.40;;;;;;;1.24;100.00;96992.03;5022998;28;20499;-77
2021/12/20 08:42:44;;;;;;;56.63;22.20;;;;;;;1.32;100.00;96983.84;5030322;28;20021;-78
2021/12/20 08:45:11;;;;;;;56.97;22.07;;;;;;;1.30;100.00;96980.47;5020490;28;20093;-77
2021/12/20 08:47:37;;;;;;;52.00;22.13;;;;;;;1.40;100.00;96984.25;5015986;28;20187;-77
2021/12/20 08:50:07;;;;;;;58.40;22.70;;;;;;;1.43;100.00;96991.84;5038131;28;20038;-76
2021/12/20 08:52:33;;;;;;;55.97;22.93;;;;;;;1.39;100.00;96993.78;5015492;28;20120;-77
2021/12/20 08:54:59;;;;;;;54.03;23.43;;;;;;;1.49;100.00;96995.88;5015546;28;20030;-77
2021/12/20 08:57:25;;;;;;;49.57;20.80;;;;;;;1.53;100.00;96987.81;5031808;28;20044;-76
2021/12/20 08:59:51;;;;;;;67.40;29.30;;;;;;;1.62;100.00;96989.09;4998587;28;20033;-76
2021/12/20 09:02:16;;;;;;;52.30;22.80;;;;;;;1.64;100.00;96995.88;5016020;28;20584;-76
2021/12/20 09:04:42;;;;;;;53.10;20.93;;;;;;;1.81;100.00;96996.66;5032335;28;20423;-77
2021/12/20 09:07:15;;;;;;;46.83;21.00;;;;;;;1.99;100.00;96992.19;5016205;28;20060;-76
2021/12/20 09:09:46;;;;;;;47.72;20.92;;;;;;;2.06;100.00;96993.50;5032314;28;20033;-77
2021/12/20 09:12:15;;;;;;;49.63;21.33;;;;;;;2.10;100.00;96998.41;5000068;28;20052;-77
2021/12/20 09:14:41;;;;;;;46.10;20.40;;;;;;;2.06;100.00;97002.13;5015533;28;20095;-77
2021/12/20 09:17:07;;;;;;;44.67;19.40;;;;;;;2.12;100.00;97006.97;5015741;28;20095;-77
2021/12/20 09:19:36;;;;;;;35.17;17.23;;;;;;;2.28;100.00;97000.88;4999731;28;20478;-75
2021/12/20 09:22:06;;;;;;;42.63;18.53;;;;;;;2.54;100.00;96994.97;5033854;28;20398;-77
2021/12/20 09:24:33;;;;;;;44.43;18.67;;;;;;;2.79;100.00;96996.13;5031362;28;20030;-77
2021/12/20 09:27:01;;;;;;;37.67;16.43;;;;;;;2.86;100.00;96997.44;4998131;28;20033;-77
2021/12/20 09:29:26;;;;;;;37.07;15.20;;;;;;;3.64;100.00;96994.34;4998026;28;20096;-77
2021/12/20 09:31:52;;;;;;;31.37;14.83;;;;;;;4.06;100.00;96992.47;5015125;28;20047;-77
2021/12/20 09:34:18;;;;;;;28.17;14.27;;;;;;;4.21;100.00;96988.88;5022016;28;20024;-76
2021/12/20 09:36:43;;;;;;;27.83;13.93;;;;;;;3.92;100.00;96994.25;5017886;28;20048;-74
2021/12/20 09:39:11;;;;;;;27.00;12.57;;;;;;;4.78;100.00;96978.09;5034029;28;20040;-77
2021/12/20 09:44:08;;;;;;;40.27;21.17;;;;;;;4.97;100.00;96983.69;5052689;28;20518;-77
2021/12/20 09:46:34;;;;;;;20.90;10.73;;;;;;;4.27;100.00;96991.09;5034219;28;20018;-77
2021/12/20 09:49:04;;;;;;;26.80;12.83;;;;;;;3.86;100.00;96989.44;5017858;28;20041;-76
2021/12/20 09:51:29;;;;;;;21.27;10.43;;;;;;;4.01;100.00;96987.59;5018497;28;20383;-77
2021/12/20 09:53:55;;;;;;;22.90;10.43;;;;;;;3.92;100.00;96993.38;5030261;28;20021;-77
2021/12/20 09:56:28;;;;;;;19.33;10.10;;;;;;;3.26;100.00;97000.19;5046040;28;20496;-77
2021/12/20 09:58:57;;;;;;;16.27;7.47;;;;;;;3.15;100.00;96997.41;5016305;28;20109;-77
2021/12/20 10:01:25;;;;;;;26.33;13.07;;;;;;;2.68;100.00;97001.94;5026047;28;20151;-77
2021/12/20 10:03:53;;;;;;;19.53;9.43;;;;;;;2.43;100.00;97009.53;5014322;28;20017;-78
2021/12/20 10:06:19;;;;;;;17.73;8.53;;;;;;;2.33;100.00;97004.88;5030912;28;20026;-77
2021/12/20 10:08:53;;;;;;;18.03;7.53;;;;;;;2.29;100.00;97002.56;5030243;28;20029;-76
2021/12/20 10:11:29;;;;;;;19.13;8.23;;;;;;;2.20;100.00;97000.50;5012953;28;20037;-76
2021/12/20 10:14:07;;;;;;;15.67;8.03;;;;;;;2.17;100.00;97006.69;4994542;28;20065;-76
2021/12/20 10:16:34;;;;;;;26.63;10.13;;;;;;;2.13;100.00;97006.03;5011925;28;20055;-77
2021/12/20 10:19:01;;;;;;;21.03;10.73;;;;;;;2.30;100.00;97009.41;5006650;28;20048;-76
2021/12/20 10:21:39;;;;;;;26.03;14.47;;;;;;;2.38;100.00;97002.00;5009367;28;20461;-75
2021/12/20 10:24:06;;;;;;;21.73;13.57;;;;;;;2.44;100.00;97001.66;5003857;28;20541;-76
2021/12/20 10:26:40;;;;;;;24.97;11.23;;;;;;;2.26;100.00;97007.94;5033773;28;20398;-78
2021/12/20 10:29:21;;;;;;;16.93;8.47;;;;;;;2.30;100.00;97005.06;5013174;28;20030;-76
2021/12/20 10:31:48;;;;;;;31.07;16.53;;;;;;;2.41;100.00;97006.19;4996018;28;20088;-77
2021/12/20 10:34:14;;;;;;;25.80;12.13;;;;;;;2.31;100.00;97009.34;5031753;28;20033;-76
2021/12/20 10:36:55;;;;;;;14.10;6.53;;;;;;;2.25;100.00;97006.25;5013484;28;20047;-77
2021/12/20 10:39:33;;;;;;;16.53;7.17;;;;;;;2.68;100.00;97008.91;5011639;28;20498;-76
2021/12/20 10:42:13;;;;;;;20.90;7.87;;;;;;;3.06;100.00;96989.25;4994938;28;20052;-76
2021/12/20 10:44:39;;;;;;;26.00;11.53;;;;;;;3.82;100.00;96981.91;5018083;28;20495;-77
2021/12/20 10:47:05;;;;;;;15.00;5.00;;;;;;;4.33;100.00;96985.47;5034807;28;20030;-78
2021/12/20 10:49:31;;;;;;;12.00;3.83;;;;;;;4.91;100.00;96975.47;4998129;28;20037;-76
2021/12/20 10:51:57;;;;;;;12.33;4.70;;;;;;;4.77;95.48;96984.25;5011314;28;20136;-77
2021/12/20 10:54:30;;;;;;;10.13;3.93;;;;;;;4.80;93.18;96981.44;5023753;28;20166;-78
2021/12/20 10:57:05;;;;;;;9.98;4.32;;;;;;;5.04;96.80;96976.28;5015317;28;20029;-78
2021/12/20 10:59:36;;;;;;;10.47;4.77;;;;;;;4.72;98.38;96978.50;5010151;28;20063;-78
2021/12/20 11:03:09;;;;;;;14.57;6.13;;;;;;;4.68;97.81;96975.25;4991353;28;20036;-77
2021/12/20 11:05:22;;;;;;;11.97;4.83;;;;;;;4.33;97.00;96985.47;5015740;28;20533;-77
2021/12/20 11:10:32;;;;;;;17.70;5.87;;;;;;;4.54;94.33;96967.56;5020055;28;20495;-76
2021/12/20 11:12:58;;;;;;;18.80;7.20;;;;;;;4.74;95.03;96958.38;5009485;28;20709;-77
2021/12/20 11:15:28;;;;;;;10.00;4.67;;;;;;;4.84;92.84;96962.03;5024367;28;20018;-77
2021/12/20 11:17:55;;;;;;;11.20;3.57;;;;;;;4.88;87.79;96966.09;5031644;28;20036;-76
2021/12/20 11:20:22;;;;;;;12.67;3.83;;;;;;;4.94;84.68;96962.22;5050116;28;20105;-76
2021/12/20 11:22:47;;;;;;;10.60;3.93;;;;;;;4.25;89.94;96972.94;5032143;28;20028;-76
2021/12/20 11:25:15;;;;;;;12.50;4.43;;;;;;;4.79;89.48;96969.31;5049884;28;20398;-77
2021/12/20 11:27:51;;;;;;;9.70;3.90;;;;;;;4.85;90.11;96965.47;5009534;28;20522;-78
2021/12/20 11:30:19;;;;;;;10.33;3.60;;;;;;;4.63;92.71;96966.13;5003428;28;20668;-78
2021/12/20 11:32:47;;;;;;;9.40;3.13;;;;;;;4.55;85.02;96971.00;5004618;28;20029;-77
2021/12/20 11:35:15;;;;;;;11.13;3.00;;;;;;;4.51;86.58;96974.75;5009426;28;20040;-78